createdAt,value
2022-10-31T00:00:59.308Z,942.41
2022-10-31T00:02:00.327Z,942.4
2022-10-31T00:03:01.266Z,942.44
2022-10-31T00:04:01.133Z,942.46
2022-10-31T00:05:01.382Z,942.45
2022-10-31T00:06:02.382Z,942.45
2022-10-31T00:07:03.300Z,942.44
2022-10-31T00:08:04.232Z,942.44
2022-10-31T00:09:04.440Z,942.43
2022-10-31T00:10:05.345Z,942.42
2022-10-31T00:11:06.250Z,942.44
2022-10-31T00:12:06.879Z,942.39
2022-10-31T00:13:07.828Z,942.38
2022-10-31T00:14:08.764Z,942.43
2022-10-31T00:15:09.670Z,942.41
2022-10-31T00:16:09.971Z,942.43
2022-10-31T00:17:10.484Z,942.44
2022-10-31T00:18:10.954Z,942.4
2022-10-31T00:19:11.900Z,942.42
2022-10-31T00:20:12.113Z,942.38
2022-10-31T00:21:12.599Z,942.39
2022-10-31T00:22:12.803Z,942.43
2022-10-31T00:23:12.994Z,942.43
2022-10-31T00:24:13.881Z,942.45
2022-10-31T00:25:14.067Z,942.43
2022-10-31T00:26:14.839Z,942.42
2022-10-31T00:27:15.021Z,942.42
2022-10-31T00:28:15.993Z,942.38
2022-10-31T00:29:16.666Z,942.38
2022-10-31T00:30:17.198Z,942.36
2022-10-31T00:31:17.392Z,942.39
2022-10-31T00:32:17.917Z,942.42
2022-10-31T00:33:18.819Z,942.4
2022-10-31T00:34:19.774Z,942.42
2022-10-31T00:35:19.998Z,942.43
2022-10-31T00:36:21.144Z,942.4
2022-10-31T00:37:21.756Z,942.42
2022-10-31T00:38:22.668Z,942.46
2022-10-31T00:39:23.286Z,942.46
2022-10-31T00:40:24.185Z,942.47
2022-10-31T00:41:24.395Z,942.45
2022-10-31T00:42:24.586Z,942.46
2022-10-31T00:43:25.204Z,942.43
2022-10-31T00:44:25.692Z,942.44
2022-10-31T00:45:26.604Z,942.46
2022-10-31T00:46:27.298Z,942.39
2022-10-31T00:47:28.215Z,942.41
2022-10-31T00:48:29.134Z,942.42
2022-10-31T00:49:30.077Z,942.46
2022-10-31T00:50:31.020Z,942.44
2022-10-31T00:51:31.930Z,942.46
2022-10-31T00:52:32.115Z,942.46
2022-10-31T00:53:33.002Z,942.48
2022-10-31T00:54:33.478Z,942.5
2022-10-31T00:55:33.684Z,942.53
2022-10-31T00:56:34.696Z,942.49
2022-10-31T00:57:34.901Z,942.5
2022-10-31T00:58:35.106Z,942.52
2022-10-31T00:59:35.676Z,942.51
2022-10-31T01:00:36.585Z,942.45
2022-10-31T01:01:37.361Z,942.51
2022-10-31T01:02:37.679Z,942.5
2022-10-31T01:03:38.197Z,942.42
2022-10-31T01:04:38.418Z,942.45
2022-10-31T01:05:38.939Z,942.48
2022-10-31T01:06:39.223Z,942.44
2022-10-31T01:07:39.430Z,942.47
2022-10-31T01:08:40.341Z,942.44
2022-10-31T01:09:40.830Z,942.45
2022-10-31T01:10:41.718Z,942.44
2022-10-31T01:11:42.631Z,942.44
2022-10-31T01:12:43.549Z,942.44
2022-10-31T01:13:44.609Z,942.45
2022-10-31T01:14:44.806Z,942.45
2022-10-31T01:15:45.438Z,942.43
2022-10-31T01:16:46.267Z,942.46
2022-10-31T01:17:47.204Z,942.45
2022-10-31T01:18:48.152Z,942.45
2022-10-31T01:19:48.364Z,942.48
2022-10-31T01:20:48.581Z,942.47
2022-10-31T01:21:49.489Z,942.47
2022-10-31T01:22:50.120Z,942.49
2022-10-31T01:23:50.307Z,942.47
2022-10-31T01:24:50.940Z,942.47
2022-10-31T01:25:51.131Z,942.47
2022-10-31T01:26:51.836Z,942.48
2022-10-31T01:27:52.724Z,942.45
2022-10-31T01:28:52.916Z,942.41
2022-10-31T01:29:53.550Z,942.42
2022-10-31T01:30:53.740Z,942.48
2022-10-31T01:31:54.628Z,942.44
2022-10-31T01:32:54.873Z,942.46
2022-10-31T01:33:55.141Z,942.43
2022-10-31T01:34:55.353Z,942.44
2022-10-31T01:35:56.313Z,942.44
2022-10-31T01:36:56.727Z,942.44
2022-10-31T01:37:57.342Z,942.43
2022-10-31T01:38:58.229Z,942.37
2022-10-31T01:39:59.138Z,942.4
2022-10-31T01:40:59.344Z,942.38
2022-10-31T01:41:59.551Z,942.4
2022-10-31T01:43:00.756Z,942.39
2022-10-31T01:44:01.153Z,942.32
2022-10-31T01:45:01.789Z,942.29
2022-10-31T01:46:02.695Z,942.3
2022-10-31T01:47:03.684Z,942.32
2022-10-31T01:48:04.759Z,942.34
2022-10-31T01:49:05.355Z,942.31
2022-10-31T01:50:05.568Z,942.29
2022-10-31T01:51:05.806Z,942.27
2022-10-31T01:52:06.419Z,942.28
2022-10-31T01:53:06.628Z,942.29
2022-10-31T01:54:07.492Z,942.28
2022-10-31T01:55:07.693Z,942.31
2022-10-31T01:56:08.048Z,942.31
2022-10-31T01:57:08.201Z,942.29
2022-10-31T01:58:08.955Z,942.3
2022-10-31T01:59:09.531Z,942.27
2022-10-31T02:00:10.443Z,942.27
2022-10-31T02:01:11.413Z,942.24
2022-10-31T02:02:11.689Z,942.27
2022-10-31T02:03:11.892Z,942.25
2022-10-31T02:04:12.789Z,942.25
2022-10-31T02:05:13.369Z,942.26
2022-10-31T02:06:13.889Z,942.22
2022-10-31T02:07:14.571Z,942.26
2022-10-31T02:08:15.065Z,942.23
2022-10-31T02:09:15.995Z,942.23
2022-10-31T02:10:16.935Z,942.19
2022-10-31T02:11:17.142Z,942.21
2022-10-31T02:12:17.480Z,942.23
2022-10-31T02:13:17.712Z,942.27
2022-10-31T02:14:17.971Z,942.27
2022-10-31T02:15:18.868Z,942.23
2022-10-31T02:16:19.481Z,942.24
2022-10-31T02:17:20.497Z,942.22
2022-10-31T02:18:21.161Z,942.24
2022-10-31T02:19:22.075Z,942.21
2022-10-31T02:20:22.597Z,942.2
2022-10-31T02:21:23.105Z,942.18
2022-10-31T02:22:23.294Z,942.21
2022-10-31T02:23:23.629Z,942.15
2022-10-31T02:24:24.226Z,942.14
2022-10-31T02:25:24.708Z,942.18
2022-10-31T02:26:24.892Z,942.16
2022-10-31T02:27:25.570Z,942.15
2022-10-31T02:28:26.538Z,942.15
2022-10-31T02:29:26.747Z,942.17
2022-10-31T02:30:27.233Z,942.12
2022-10-31T02:31:27.445Z,942.19
2022-10-31T02:32:28.356Z,942.14
2022-10-31T02:33:28.716Z,942.15
2022-10-31T02:34:29.623Z,942.18
2022-10-31T02:35:30.143Z,942.16
2022-10-31T02:36:30.652Z,942.16
2022-10-31T02:37:31.379Z,942.17
2022-10-31T02:38:31.969Z,942.16
2022-10-31T02:39:32.907Z,942.11
2022-10-31T02:40:33.095Z,942.09
2022-10-31T02:41:34.009Z,942.05
2022-10-31T02:42:34.922Z,942.11
2022-10-31T02:43:35.285Z,942.08
2022-10-31T02:44:35.596Z,942.1
2022-10-31T02:45:35.787Z,942.1
2022-10-31T02:46:35.972Z,942.11
2022-10-31T02:47:36.126Z,942.09
2022-10-31T02:48:36.775Z,942.1
2022-10-31T02:49:37.215Z,942.08
2022-10-31T02:50:37.425Z,942.1
2022-10-31T02:51:37.649Z,942.11
2022-10-31T02:52:38.556Z,942.07
2022-10-31T02:53:38.763Z,942.09
2022-10-31T02:54:39.400Z,942.09
2022-10-31T02:55:40.313Z,942.07
2022-10-31T02:56:41.214Z,942.06
2022-10-31T02:57:41.502Z,942.07
2022-10-31T02:58:42.327Z,942.08
2022-10-31T02:59:43.040Z,942.06
2022-10-31T03:00:44.825Z,942.06
2022-10-31T03:01:44.636Z,942.04
2022-10-31T03:02:44.895Z,942.05
2022-10-31T03:03:45.551Z,942.03
2022-10-31T03:04:45.751Z,942.04
2022-10-31T03:05:46.699Z,942.03
2022-10-31T03:06:47.214Z,942.02
2022-10-31T03:07:47.913Z,942
2022-10-31T03:08:48.531Z,942.01
2022-10-31T03:09:49.422Z,942.01
2022-10-31T03:10:50.333Z,942
2022-10-31T03:11:50.544Z,942
2022-10-31T03:12:50.878Z,941.97
2022-10-31T03:13:51.560Z,942
2022-10-31T03:14:52.469Z,941.98
2022-10-31T03:15:52.955Z,942.01
2022-10-31T03:16:53.863Z,941.99
2022-10-31T03:17:54.908Z,941.98
2022-10-31T03:18:55.580Z,941.97
2022-10-31T03:19:55.907Z,941.96
2022-10-31T03:20:56.417Z,941.96
2022-10-31T03:21:57.052Z,941.99
2022-10-31T03:22:57.948Z,942
2022-10-31T03:23:58.303Z,942
2022-10-31T03:24:58.639Z,941.99
2022-10-31T03:25:58.852Z,941.97
2022-10-31T03:26:59.102Z,941.97
2022-10-31T03:27:59.802Z,941.94
2022-10-31T03:28:59.866Z,941.95
2022-10-31T03:30:00.772Z,941.93
2022-10-31T03:31:03.428Z,941.93
2022-10-31T03:32:01.874Z,941.95
2022-10-31T03:33:02.724Z,941.93
2022-10-31T03:34:03.128Z,941.94
2022-10-31T03:35:03.296Z,941.99
2022-10-31T03:36:04.222Z,942
2022-10-31T03:37:04.440Z,941.97
2022-10-31T03:38:06.896Z,941.96
2022-10-31T03:39:04.921Z,941.96
2022-10-31T03:40:05.805Z,942
2022-10-31T03:41:05.996Z,941.97
2022-10-31T03:42:06.479Z,941.99
2022-10-31T03:43:07.499Z,941.95
2022-10-31T03:44:07.919Z,941.97
2022-10-31T03:45:08.850Z,941.98
2022-10-31T03:46:09.772Z,941.98
2022-10-31T03:47:10.701Z,941.99
2022-10-31T03:48:10.948Z,942
2022-10-31T03:49:11.179Z,941.99
2022-10-31T03:50:12.071Z,941.99
2022-10-31T03:51:12.317Z,941.99
2022-10-31T03:52:13.288Z,941.96
2022-10-31T03:53:13.922Z,941.95
2022-10-31T03:54:14.412Z,941.96
2022-10-31T03:55:14.894Z,941.94
2022-10-31T03:56:15.818Z,941.96
2022-10-31T03:57:16.042Z,941.93
2022-10-31T03:58:16.492Z,941.94
2022-10-31T03:59:16.741Z,941.98
2022-10-31T04:00:17.354Z,941.98
2022-10-31T04:01:18.453Z,941.96
2022-10-31T04:02:18.923Z,941.95
2022-10-31T04:03:18.939Z,941.98
2022-10-31T04:04:19.908Z,941.98
2022-10-31T04:05:20.378Z,942
2022-10-31T04:06:20.604Z,942.01
2022-10-31T04:07:21.240Z,941.97
2022-10-31T04:08:21.497Z,941.98
2022-10-31T04:09:21.685Z,941.96
2022-10-31T04:10:21.865Z,941.95
2022-10-31T04:11:22.799Z,941.96
2022-10-31T04:12:23.706Z,941.93
2022-10-31T04:13:24.215Z,941.9
2022-10-31T04:14:25.145Z,941.92
2022-10-31T04:15:26.052Z,941.91
2022-10-31T04:16:26.958Z,941.93
2022-10-31T04:17:27.888Z,941.93
2022-10-31T04:18:28.195Z,941.89
2022-10-31T04:19:29.114Z,941.94
2022-10-31T04:20:29.292Z,941.92
2022-10-31T04:21:30.242Z,941.97
2022-10-31T04:22:30.450Z,941.93
2022-10-31T04:23:31.360Z,941.93
2022-10-31T04:24:32.250Z,941.96
2022-10-31T04:25:32.893Z,941.92
2022-10-31T04:26:33.822Z,941.92
2022-10-31T04:27:34.026Z,941.9
2022-10-31T04:28:35.039Z,941.95
2022-10-31T04:29:35.930Z,941.96
2022-10-31T04:30:36.244Z,941.97
2022-10-31T04:31:36.830Z,941.99
2022-10-31T04:32:37.722Z,941.96
2022-10-31T04:33:38.206Z,941.93
2022-10-31T04:34:38.413Z,941.97
2022-10-31T04:35:39.324Z,941.93
2022-10-31T04:36:39.538Z,941.96
2022-10-31T04:37:40.517Z,941.94
2022-10-31T04:38:41.611Z,941.95
2022-10-31T04:39:42.212Z,941.94
2022-10-31T04:40:42.398Z,941.92
2022-10-31T04:41:42.883Z,941.92
2022-10-31T04:42:43.369Z,941.93
2022-10-31T04:43:43.794Z,941.94
2022-10-31T04:44:44.490Z,941.91
2022-10-31T04:45:44.684Z,941.93
2022-10-31T04:46:44.869Z,941.93
2022-10-31T04:47:45.801Z,941.9
2022-10-31T04:48:46.840Z,941.94
2022-10-31T04:49:47.344Z,941.92
2022-10-31T04:50:47.519Z,941.9
2022-10-31T04:51:47.738Z,941.86
2022-10-31T04:52:48.373Z,941.88
2022-10-31T04:53:49.328Z,941.88
2022-10-31T04:54:50.241Z,941.85
2022-10-31T04:55:50.729Z,941.83
2022-10-31T04:56:51.071Z,941.85
2022-10-31T04:57:51.979Z,941.91
2022-10-31T04:58:52.148Z,941.9
2022-10-31T04:59:52.356Z,941.91
2022-10-31T05:00:53.321Z,941.9
2022-10-31T05:01:53.532Z,941.92
2022-10-31T05:02:53.624Z,941.91
2022-10-31T05:03:54.260Z,941.89
2022-10-31T05:04:54.767Z,941.91
2022-10-31T05:05:54.937Z,941.85
2022-10-31T05:06:55.155Z,941.91
2022-10-31T05:07:55.785Z,941.95
2022-10-31T05:08:56.481Z,941.92
2022-10-31T05:09:56.796Z,941.9
2022-10-31T05:11:01.559Z,941.89
2022-10-31T05:11:57.935Z,941.89
2022-10-31T05:12:59.005Z,941.92
2022-10-31T05:13:59.555Z,941.88
2022-10-31T05:14:59.752Z,941.9
2022-10-31T05:15:59.944Z,941.88
2022-10-31T05:17:00.429Z,941.85
2022-10-31T05:18:01.281Z,941.85
2022-10-31T05:19:01.862Z,941.87
2022-10-31T05:20:02.095Z,941.85
2022-10-31T05:21:02.281Z,941.85
2022-10-31T05:22:02.789Z,941.86
2022-10-31T05:23:02.999Z,941.8
2022-10-31T05:24:03.503Z,941.81
2022-10-31T05:25:03.693Z,941.81
2022-10-31T05:26:04.603Z,941.79
2022-10-31T05:27:04.811Z,941.79
2022-10-31T05:28:05.152Z,941.79
2022-10-31T05:29:05.852Z,941.8
2022-10-31T05:30:06.765Z,941.78
2022-10-31T05:31:07.691Z,941.78
2022-10-31T05:32:07.895Z,941.77
2022-10-31T05:33:08.492Z,941.78
2022-10-31T05:34:09.385Z,941.8
2022-10-31T05:35:10.314Z,941.76
2022-10-31T05:36:10.797Z,941.76
2022-10-31T05:37:11.016Z,941.76
2022-10-31T05:38:11.521Z,941.81
2022-10-31T05:39:11.908Z,941.75
2022-10-31T05:40:12.797Z,941.71
2022-10-31T05:41:13.004Z,941.76
2022-10-31T05:42:13.218Z,941.78
2022-10-31T05:43:13.842Z,941.75
2022-10-31T05:44:14.159Z,941.75
2022-10-31T05:45:14.352Z,941.78
2022-10-31T05:46:15.247Z,941.76
2022-10-31T05:47:15.543Z,941.73
2022-10-31T05:48:16.173Z,941.75
2022-10-31T05:49:16.456Z,941.77
2022-10-31T05:50:17.401Z,941.76
2022-10-31T05:51:18.298Z,941.76
2022-10-31T05:52:18.810Z,941.74
2022-10-31T05:53:19.031Z,941.73
2022-10-31T05:54:19.916Z,941.75
2022-10-31T05:55:20.826Z,941.76
2022-10-31T05:56:21.750Z,941.79
2022-10-31T05:57:22.240Z,941.78
2022-10-31T05:58:22.434Z,941.77
2022-10-31T05:59:23.437Z,941.75
2022-10-31T06:00:24.347Z,941.7
2022-10-31T06:01:25.312Z,941.74
2022-10-31T06:02:25.529Z,941.72
2022-10-31T06:03:26.439Z,941.75
2022-10-31T06:04:26.981Z,941.7
2022-10-31T06:05:27.397Z,941.71
2022-10-31T06:06:28.299Z,941.71
2022-10-31T06:07:28.534Z,941.71
2022-10-31T06:08:28.754Z,941.73
2022-10-31T06:09:29.159Z,941.76
2022-10-31T06:10:29.351Z,941.74
2022-10-31T06:11:29.533Z,941.72
2022-10-31T06:12:30.881Z,941.7
2022-10-31T06:13:31.149Z,941.67
2022-10-31T06:14:31.492Z,941.72
2022-10-31T06:15:32.415Z,941.69
2022-10-31T06:16:33.044Z,941.7
2022-10-31T06:17:33.957Z,941.7
2022-10-31T06:18:34.866Z,941.68
2022-10-31T06:19:35.204Z,941.68
2022-10-31T06:20:35.597Z,941.65
2022-10-31T06:21:35.800Z,941.65
2022-10-31T06:22:36.777Z,941.68
2022-10-31T06:23:37.005Z,941.65
2022-10-31T06:24:37.619Z,941.62
2022-10-31T06:25:38.100Z,941.62
2022-10-31T06:26:39.018Z,941.63
2022-10-31T06:27:39.358Z,941.65
2022-10-31T06:28:40.254Z,941.64
2022-10-31T06:29:40.535Z,941.64
2022-10-31T06:30:41.432Z,941.61
2022-10-31T06:31:42.345Z,941.58
2022-10-31T06:32:42.964Z,941.59
2022-10-31T06:33:43.361Z,941.59
2022-10-31T06:34:43.958Z,941.58
2022-10-31T06:35:44.899Z,941.59
2022-10-31T06:36:45.802Z,941.57
2022-10-31T06:37:48.205Z,941.59
2022-10-31T06:38:47.469Z,941.56
2022-10-31T06:39:48.329Z,941.61
2022-10-31T06:40:49.245Z,941.57
2022-10-31T06:41:49.455Z,941.56
2022-10-31T06:42:50.395Z,941.57
2022-10-31T06:43:50.888Z,941.57
2022-10-31T06:44:51.045Z,941.57
2022-10-31T06:45:51.238Z,941.56
2022-10-31T06:46:51.857Z,941.57
2022-10-31T06:48:15.318Z,941.54
2022-10-31T06:48:53.185Z,941.54
2022-10-31T06:49:54.167Z,941.55
2022-10-31T06:50:58.630Z,941.54
2022-10-31T06:51:55.383Z,941.52
2022-10-31T06:52:55.949Z,941.5
2022-10-31T06:53:56.684Z,941.5
2022-10-31T06:54:57.298Z,941.51
2022-10-31T06:55:58.208Z,941.49
2022-10-31T06:56:58.825Z,941.53
2022-10-31T06:58:01.846Z,941.54
2022-10-31T06:58:59.937Z,941.54
2022-10-31T07:00:00.293Z,941.51
2022-10-31T07:01:00.614Z,941.55
2022-10-31T07:02:01.681Z,941.55
2022-10-31T07:03:01.752Z,941.56
2022-10-31T07:04:02.213Z,941.56
2022-10-31T07:05:03.407Z,941.57
2022-10-31T07:06:04.331Z,941.57
2022-10-31T07:07:04.813Z,941.53
2022-10-31T07:08:05.041Z,941.59
2022-10-31T07:09:05.258Z,941.59
2022-10-31T07:10:05.715Z,941.65
2022-10-31T07:11:05.797Z,941.65
2022-10-31T07:12:06.710Z,941.63
2022-10-31T07:13:06.902Z,941.69
2022-10-31T07:14:07.841Z,941.74
2022-10-31T07:15:08.738Z,941.73
2022-10-31T07:16:09.663Z,941.73
2022-10-31T07:17:09.859Z,941.76
2022-10-31T07:18:10.485Z,941.76
2022-10-31T07:19:10.704Z,941.74
2022-10-31T07:20:11.021Z,941.79
2022-10-31T07:21:11.449Z,941.78
2022-10-31T07:22:12.374Z,941.81
2022-10-31T07:23:12.892Z,941.8
2022-10-31T07:24:13.128Z,941.77
2022-10-31T07:25:13.637Z,941.77
2022-10-31T07:26:14.290Z,941.77
2022-10-31T07:27:14.505Z,941.74
2022-10-31T07:28:14.832Z,941.75
2022-10-31T07:29:15.729Z,941.72
2022-10-31T07:30:15.871Z,941.73
2022-10-31T07:31:16.973Z,941.73
2022-10-31T07:32:17.211Z,941.71
2022-10-31T07:33:17.829Z,941.74
2022-10-31T07:34:18.023Z,941.73
2022-10-31T07:35:18.941Z,941.69
2022-10-31T07:36:19.865Z,941.62
2022-10-31T07:37:20.486Z,941.68
2022-10-31T07:38:21.442Z,941.7
2022-10-31T07:39:22.369Z,941.69
2022-10-31T07:40:23.065Z,941.69
2022-10-31T07:41:23.265Z,941.69
2022-10-31T07:42:23.906Z,941.67
2022-10-31T07:43:24.526Z,941.68
2022-10-31T07:44:25.154Z,941.67
2022-10-31T07:45:25.650Z,941.67
2022-10-31T07:46:26.555Z,941.65
2022-10-31T07:47:27.486Z,941.7
2022-10-31T07:48:27.710Z,941.67
2022-10-31T07:49:28.059Z,941.69
2022-10-31T07:50:28.804Z,941.67
2022-10-31T07:51:29.747Z,941.7
2022-10-31T07:52:30.714Z,941.72
2022-10-31T07:53:30.943Z,941.74
2022-10-31T07:54:31.600Z,941.68
2022-10-31T07:55:31.860Z,941.74
2022-10-31T07:56:32.366Z,941.69
2022-10-31T07:57:34.605Z,941.71
2022-10-31T07:58:34.051Z,941.72
2022-10-31T07:59:34.956Z,941.74
2022-10-31T08:00:36.050Z,941.71
2022-10-31T08:01:36.309Z,941.71
2022-10-31T08:02:36.528Z,941.71
2022-10-31T08:03:36.723Z,941.7
2022-10-31T08:04:37.367Z,941.65
2022-10-31T08:05:37.857Z,941.62
2022-10-31T08:06:38.768Z,941.64
2022-10-31T08:07:39.275Z,941.61
2022-10-31T08:08:40.214Z,941.62
2022-10-31T08:09:40.431Z,941.57
2022-10-31T08:10:41.463Z,941.56
2022-10-31T08:11:42.370Z,941.56
2022-10-31T08:12:43.014Z,941.53
2022-10-31T08:13:43.503Z,941.54
2022-10-31T08:14:43.710Z,941.52
2022-10-31T08:15:44.615Z,941.5
2022-10-31T08:16:44.807Z,941.52
2022-10-31T08:17:45.003Z,941.56
2022-10-31T08:18:45.164Z,941.54
2022-10-31T08:19:45.372Z,941.59
2022-10-31T08:20:45.693Z,941.56
2022-10-31T08:21:45.930Z,941.56
2022-10-31T08:22:46.134Z,941.54
2022-10-31T08:23:47.067Z,941.53
2022-10-31T08:24:47.314Z,941.53
2022-10-31T08:25:47.509Z,941.52
2022-10-31T08:26:47.703Z,941.52
2022-10-31T08:27:47.896Z,941.49
2022-10-31T08:28:48.425Z,941.47
2022-10-31T08:29:49.358Z,941.48
2022-10-31T08:30:50.363Z,941.48
2022-10-31T08:31:50.582Z,941.46
2022-10-31T08:32:51.206Z,941.48
2022-10-31T08:33:51.401Z,941.45
2022-10-31T08:34:52.320Z,941.45
2022-10-31T08:35:52.544Z,941.44
2022-10-31T08:36:52.789Z,941.45
2022-10-31T08:37:53.709Z,941.46
2022-10-31T08:38:57.817Z,941.44
2022-10-31T08:39:54.875Z,941.45
2022-10-31T08:40:55.482Z,941.44
2022-10-31T08:41:55.976Z,941.43
2022-10-31T08:42:56.876Z,941.41
2022-10-31T08:43:57.078Z,941.37
2022-10-31T08:44:58.037Z,941.37
2022-10-31T08:45:58.548Z,941.38
2022-10-31T08:46:59.205Z,941.34
2022-10-31T08:47:59.892Z,941.34
2022-10-31T08:48:59.910Z,941.34
2022-10-31T08:50:00.831Z,941.35
2022-10-31T08:51:01.831Z,941.35
2022-10-31T08:52:02.790Z,941.41
2022-10-31T08:53:05.520Z,941.34
2022-10-31T08:54:04.072Z,941.36
2022-10-31T08:55:04.345Z,941.34
2022-10-31T08:56:05.427Z,941.37
2022-10-31T08:57:05.629Z,941.39
2022-10-31T08:58:06.549Z,941.44
2022-10-31T08:59:06.750Z,941.37
2022-10-31T09:00:07.675Z,941.37
2022-10-31T09:01:08.295Z,941.37
2022-10-31T09:02:08.785Z,941.35
2022-10-31T09:03:09.179Z,941.38
2022-10-31T09:04:09.413Z,941.38
2022-10-31T09:05:09.658Z,941.41
2022-10-31T09:06:10.368Z,941.39
2022-10-31T09:07:26.073Z,941.4
2022-10-31T09:08:15.894Z,941.38
2022-10-31T09:09:11.920Z,941.35
2022-10-31T09:10:12.144Z,941.34
2022-10-31T09:11:13.230Z,941.31
2022-10-31T09:12:13.883Z,941.33
2022-10-31T09:13:14.083Z,941.35
2022-10-31T09:14:14.874Z,941.33
2022-10-31T09:15:15.099Z,941.34
2022-10-31T09:16:15.746Z,941.3
2022-10-31T09:17:16.668Z,941.32
2022-10-31T09:18:17.335Z,941.29
2022-10-31T09:19:18.256Z,941.27
2022-10-31T09:20:18.472Z,941.26
2022-10-31T09:21:19.335Z,941.23
2022-10-31T09:22:20.419Z,941.25
2022-10-31T09:23:21.366Z,941.24
2022-10-31T09:24:22.317Z,941.2
2022-10-31T09:25:22.852Z,941.23
2022-10-31T09:26:23.199Z,941.19
2022-10-31T09:27:24.116Z,941.22
2022-10-31T09:28:25.043Z,941.23
2022-10-31T09:29:25.954Z,941.19
2022-10-31T09:30:26.876Z,941.2
2022-10-31T09:31:27.166Z,941.18
2022-10-31T09:32:27.616Z,941.15
2022-10-31T09:33:27.810Z,941.14
2022-10-31T09:34:28.035Z,941.15
2022-10-31T09:35:28.389Z,941.15
2022-10-31T09:36:29.324Z,941.09
2022-10-31T09:37:30.246Z,941.08
2022-10-31T09:38:30.656Z,941.12
2022-10-31T09:39:31.407Z,941.1
2022-10-31T09:40:31.932Z,941.13
2022-10-31T09:41:32.300Z,941.13
2022-10-31T09:42:32.618Z,941.11
2022-10-31T09:43:33.241Z,941.11
2022-10-31T09:44:33.864Z,941.1
2022-10-31T09:45:34.508Z,941.11
2022-10-31T09:46:35.139Z,941.07
2022-10-31T09:47:35.762Z,941.11
2022-10-31T09:48:35.988Z,941.07
2022-10-31T09:49:36.557Z,941.1
2022-10-31T09:50:36.964Z,941.06
2022-10-31T09:51:37.779Z,941.07
2022-10-31T09:52:38.846Z,941.04
2022-10-31T09:53:39.767Z,941.07
2022-10-31T09:54:40.718Z,941.04
2022-10-31T09:55:40.952Z,941.01
2022-10-31T09:56:41.175Z,941
2022-10-31T09:57:41.808Z,940.98
2022-10-31T09:58:42.308Z,940.97
2022-10-31T09:59:42.922Z,940.97
2022-10-31T10:00:43.664Z,940.93
2022-10-31T10:01:44.826Z,940.98
2022-10-31T10:02:45.391Z,940.93
2022-10-31T10:03:45.984Z,940.92
2022-10-31T10:04:46.177Z,940.92
2022-10-31T10:05:46.803Z,940.9
2022-10-31T10:06:47.146Z,940.89
2022-10-31T10:07:47.371Z,940.9
2022-10-31T10:08:48.260Z,940.89
2022-10-31T10:09:48.536Z,940.9
2022-10-31T10:10:49.080Z,940.89
2022-10-31T10:11:49.800Z,940.91
2022-10-31T10:12:50.152Z,940.93
2022-10-31T10:13:50.978Z,940.9
2022-10-31T10:14:51.177Z,940.85
2022-10-31T10:15:51.899Z,940.85
2022-10-31T10:16:52.827Z,940.87
2022-10-31T10:17:53.464Z,940.83
2022-10-31T10:18:53.683Z,940.88
2022-10-31T10:19:53.887Z,940.92
2022-10-31T10:20:54.901Z,940.89
2022-10-31T10:21:55.364Z,940.93
2022-10-31T10:22:56.310Z,940.89
2022-10-31T10:23:56.563Z,940.87
2022-10-31T10:24:57.218Z,940.89
2022-10-31T10:25:57.436Z,940.89
2022-10-31T10:26:57.920Z,940.91
2022-10-31T10:27:58.959Z,940.85
2022-10-31T10:28:59.575Z,940.79
2022-10-31T10:30:00.485Z,940.75
2022-10-31T10:31:01.115Z,940.74
2022-10-31T10:32:02.163Z,940.71
2022-10-31T10:33:02.664Z,940.68
2022-10-31T10:34:03.762Z,940.69
2022-10-31T10:35:03.990Z,940.66
2022-10-31T10:36:04.206Z,940.65
2022-10-31T10:37:05.150Z,940.6
2022-10-31T10:38:05.386Z,940.64
2022-10-31T10:39:06.025Z,940.65
2022-10-31T10:40:06.265Z,940.65
2022-10-31T10:41:06.489Z,940.62
2022-10-31T10:42:07.230Z,940.62
2022-10-31T10:43:07.877Z,940.62
2022-10-31T10:44:08.159Z,940.63
2022-10-31T10:45:08.377Z,940.6
2022-10-31T10:46:10.804Z,940.57
2022-10-31T10:47:10.135Z,940.57
2022-10-31T10:48:10.381Z,940.6
2022-10-31T10:49:11.014Z,940.66
2022-10-31T10:50:11.944Z,940.61
2022-10-31T10:51:20.340Z,940.62
2022-10-31T10:53:25.865Z,940.52
2022-10-31T10:54:26.480Z,940.47
2022-10-31T10:55:26.713Z,940.47
2022-10-31T10:56:26.947Z,940.53
2022-10-31T10:57:27.882Z,940.57
2022-10-31T10:58:28.504Z,940.55
2022-10-31T10:59:29.183Z,940.56
2022-10-31T11:00:30.220Z,940.56
2022-10-31T11:01:31.088Z,940.58
2022-10-31T11:02:31.293Z,940.52
2022-10-31T11:03:32.381Z,940.45
2022-10-31T11:04:32.609Z,940.43
2022-10-31T11:05:33.541Z,940.46
2022-10-31T11:06:34.167Z,940.47
2022-10-31T11:07:35.094Z,940.45
2022-10-31T11:08:35.556Z,940.46
2022-10-31T11:09:35.538Z,940.47
2022-10-31T11:10:35.781Z,940.39
2022-10-31T11:11:36.319Z,940.37
2022-10-31T11:12:36.681Z,940.37
2022-10-31T11:13:37.181Z,940.36
2022-10-31T11:14:38.127Z,940.34
2022-10-31T11:15:38.354Z,940.31
2022-10-31T11:16:41.226Z,940.29
2022-10-31T11:17:39.347Z,940.25
2022-10-31T11:18:39.862Z,940.22
2022-10-31T11:19:40.164Z,940.21
2022-10-31T11:20:40.463Z,940.19
2022-10-31T11:21:41.569Z,940.22
2022-10-31T11:22:42.173Z,940.17
2022-10-31T11:23:43.210Z,940.16
2022-10-31T11:24:43.421Z,940.17
2022-10-31T11:25:43.946Z,940.2
2022-10-31T11:26:44.180Z,940.21
2022-10-31T11:27:44.795Z,940.21
2022-10-31T11:28:45.465Z,940.19
2022-10-31T11:29:45.671Z,940.21
2022-10-31T11:30:46.534Z,940.18
2022-10-31T11:31:47.436Z,940.2
2022-10-31T11:32:48.373Z,940.18
2022-10-31T11:33:48.532Z,940.12
2022-10-31T11:34:49.458Z,940.14
2022-10-31T11:35:52.002Z,940.16
2022-10-31T11:36:50.972Z,940.17
2022-10-31T11:37:51.189Z,940.12
2022-10-31T11:38:51.653Z,940.09
2022-10-31T11:39:52.143Z,940.05
2022-10-31T11:40:52.400Z,940.08
2022-10-31T11:41:52.944Z,940.04
2022-10-31T11:42:53.668Z,940.03
2022-10-31T11:43:54.385Z,940.08
2022-10-31T11:44:55.050Z,940.06
2022-10-31T11:45:55.273Z,940.03
2022-10-31T11:46:55.754Z,940.03
2022-10-31T11:47:59.401Z,939.97
2022-10-31T11:48:56.444Z,940.02
2022-10-31T11:49:56.647Z,940.02
2022-10-31T11:50:57.552Z,940.03
2022-10-31T11:51:57.788Z,939.99
2022-10-31T11:52:58.411Z,939.95
2022-10-31T11:54:00.178Z,939.94
2022-10-31T11:54:59.316Z,939.95
2022-10-31T11:55:59.890Z,940.01
2022-10-31T11:57:00.145Z,940.02
2022-10-31T11:58:01.462Z,940
2022-10-31T11:59:01.803Z,940.01
2022-10-31T12:00:02.706Z,939.97
2022-10-31T12:01:02.876Z,939.99
2022-10-31T12:02:03.263Z,939.95
2022-10-31T12:03:04.137Z,939.99
2022-10-31T12:04:04.622Z,939.97
2022-10-31T12:05:04.912Z,939.97
2022-10-31T12:06:05.854Z,939.99
2022-10-31T12:07:06.762Z,939.99
2022-10-31T12:08:06.878Z,939.96
2022-10-31T12:09:07.925Z,939.92
2022-10-31T12:10:08.860Z,939.89
2022-10-31T12:11:09.089Z,939.89
2022-10-31T12:12:09.326Z,939.88
2022-10-31T12:13:09.654Z,939.88
2022-10-31T12:14:09.934Z,939.89
2022-10-31T12:15:10.569Z,939.98
2022-10-31T12:16:11.210Z,939.96
2022-10-31T12:17:11.419Z,939.98
2022-10-31T12:18:12.327Z,939.92
2022-10-31T12:19:12.559Z,939.87
2022-10-31T12:20:13.483Z,939.87
2022-10-31T12:21:14.108Z,939.9
2022-10-31T12:22:14.322Z,939.83
2022-10-31T12:23:14.977Z,939.82
2022-10-31T12:24:15.320Z,939.8
2022-10-31T12:25:15.540Z,939.76
2022-10-31T12:26:16.462Z,939.75
2022-10-31T12:27:16.689Z,939.75
2022-10-31T12:28:16.888Z,939.78
2022-10-31T12:29:17.501Z,939.75
2022-10-31T12:30:18.129Z,939.73
2022-10-31T12:31:18.748Z,939.71
2022-10-31T12:32:18.959Z,939.67
2022-10-31T12:33:19.880Z,939.62
2022-10-31T12:34:20.584Z,939.64
2022-10-31T12:35:21.507Z,939.63
2022-10-31T12:36:22.565Z,939.62
2022-10-31T12:37:23.172Z,939.65
2022-10-31T12:38:23.674Z,939.62
2022-10-31T12:39:24.629Z,939.59
2022-10-31T12:40:25.561Z,939.54